createdAt,value
2023-01-17T00:00:48.949Z,95134.00
2023-01-17T00:03:52.851Z,95131.44
2023-01-17T00:06:58.509Z,95128.56
2023-01-17T00:10:02.572Z,95131.72
2023-01-17T00:13:07.016Z,95144.41
2023-01-17T00:16:10.774Z,95130.09
2023-01-17T00:19:14.841Z,95126.22
2023-01-17T00:22:18.818Z,95121.91
2023-01-17T00:25:22.922Z,95112.03
2023-01-17T00:28:28.002Z,95110.72
2023-01-17T00:31:32.134Z,95097.97
2023-01-17T00:34:36.033Z,95097.75
2023-01-17T00:37:40.172Z,95091.78
2023-01-17T00:40:44.190Z,95086.28
2023-01-17T00:43:48.350Z,95087.38
2023-01-17T00:46:52.474Z,95067.28
2023-01-17T00:49:56.316Z,95066.25
2023-01-17T00:53:00.362Z,95047.44
2023-01-17T00:56:04.481Z,95037.78
2023-01-17T00:59:08.603Z,95022.91
2023-01-17T01:02:12.554Z,95016.44
2023-01-17T01:05:16.481Z,95021.28
2023-01-17T01:08:20.405Z,95024.16
2023-01-17T01:11:25.655Z,95015.63
2023-01-17T01:14:29.829Z,95009.75
2023-01-17T01:17:33.759Z,94998.63
2023-01-17T01:20:37.877Z,94994.72
2023-01-17T01:23:42.096Z,94988.97
2023-01-17T01:26:47.606Z,94985.84
2023-01-17T01:29:51.865Z,94987.13
2023-01-17T01:32:55.996Z,94983.97
2023-01-17T01:36:00.029Z,94971.47
2023-01-17T01:39:04.080Z,94973.31
2023-01-17T01:42:08.138Z,94977.75
2023-01-17T01:45:12.253Z,94967.34
2023-01-17T01:48:16.340Z,94974.09
2023-01-17T01:51:20.093Z,94976.19
2023-01-17T01:54:24.211Z,94973.84
2023-01-17T01:57:28.143Z,94986.13
2023-01-17T02:00:32.139Z,94974.66
2023-01-17T02:03:36.267Z,94968.13
2023-01-17T02:06:40.354Z,94962.97
2023-01-17T02:09:44.415Z,94958.00
2023-01-17T02:12:48.314Z,94945.47
2023-01-17T02:15:52.346Z,94936.09
2023-01-17T02:18:58.399Z,94931.81
2023-01-17T02:22:02.423Z,94921.44
2023-01-17T02:25:06.851Z,94914.13
2023-01-17T02:28:10.777Z,94915.44
2023-01-17T02:31:14.818Z,94901.34
2023-01-17T02:34:18.662Z,94888.59
2023-01-17T02:37:22.756Z,94887.13
2023-01-17T02:40:26.811Z,94882.50
2023-01-17T02:43:30.633Z,94875.41
2023-01-17T02:46:34.581Z,94867.22
2023-01-17T02:49:38.707Z,94873.75
2023-01-17T02:52:43.003Z,94868.03
2023-01-17T02:55:47.073Z,94852.41
2023-01-17T02:58:51.934Z,94835.34
2023-01-17T03:01:56.238Z,94840.97
2023-01-17T03:05:01.537Z,94833.94
2023-01-17T03:08:05.850Z,94823.66
2023-01-17T03:11:09.975Z,94819.34
2023-01-17T03:14:13.836Z,94814.28
2023-01-17T03:17:17.773Z,94806.22
2023-01-17T03:20:22.730Z,94807.28
2023-01-17T03:23:27.094Z,94801.28
2023-01-17T03:26:30.839Z,94789.63
2023-01-17T03:29:34.757Z,94777.50
2023-01-17T03:32:38.668Z,94774.72
2023-01-17T03:35:42.959Z,94765.94
2023-01-17T03:38:46.922Z,94756.78
2023-01-17T03:41:50.929Z,94748.22
2023-01-17T03:44:54.700Z,94748.31
2023-01-17T03:47:58.708Z,94737.13
2023-01-17T03:51:02.925Z,94734.56
2023-01-17T03:54:06.980Z,94728.97
2023-01-17T03:57:10.713Z,94723.16
2023-01-17T04:00:14.775Z,94729.69
2023-01-17T04:03:18.873Z,94727.63
2023-01-17T04:06:22.976Z,94729.22
2023-01-17T04:09:26.828Z,94723.50
2023-01-17T04:12:30.739Z,94718.81
2023-01-17T04:15:34.823Z,94722.38
2023-01-17T04:18:38.891Z,94713.88
2023-01-17T04:21:42.890Z,94717.97
2023-01-17T04:24:46.837Z,94706.38
2023-01-17T04:27:53.985Z,94703.94
2023-01-17T04:30:58.168Z,94700.84
2023-01-17T04:34:02.331Z,94702.72
2023-01-17T04:37:06.361Z,94695.84
2023-01-17T04:40:10.421Z,94686.94
2023-01-17T04:43:14.284Z,94679.75
2023-01-17T04:46:18.184Z,94670.09
2023-01-17T04:49:22.316Z,94654.00
2023-01-17T04:52:26.335Z,94642.03
2023-01-17T04:55:30.201Z,94632.31
2023-01-17T04:58:34.129Z,94631.81
2023-01-17T05:01:38.544Z,94634.47
2023-01-17T05:04:42.589Z,94640.44
2023-01-17T05:07:46.586Z,94641.72
2023-01-17T05:10:50.500Z,94648.16
2023-01-17T05:13:54.280Z,94645.44
2023-01-17T05:16:58.308Z,94633.41
2023-01-17T05:20:02.315Z,94633.84
2023-01-17T05:23:06.368Z,94632.09
2023-01-17T05:26:10.342Z,94621.94
2023-01-17T05:29:14.491Z,94618.53
2023-01-17T05:32:18.672Z,94616.19
2023-01-17T05:35:22.597Z,94607.88
2023-01-17T05:38:26.415Z,94599.81
2023-01-17T05:41:30.789Z,94589.09
2023-01-17T05:44:35.086Z,94574.03
2023-01-17T05:47:38.976Z,94567.75
2023-01-17T05:50:42.774Z,94570.09
2023-01-17T05:53:46.798Z,94571.66
2023-01-17T05:56:50.847Z,94574.25
2023-01-17T05:59:55.052Z,94574.22
2023-01-17T06:02:59.251Z,94574.22
2023-01-17T06:06:03.375Z,94575.50
2023-01-17T06:09:07.002Z,94568.22
2023-01-17T06:12:11.217Z,94576.34
2023-01-17T06:15:14.945Z,94558.63
2023-01-17T06:18:20.671Z,94562.25
2023-01-17T06:21:26.261Z,94562.28
2023-01-17T06:24:30.342Z,94562.75
2023-01-17T06:27:34.687Z,94549.44
2023-01-17T06:30:38.773Z,94544.31
2023-01-17T06:33:42.606Z,94546.13
2023-01-17T06:36:46.535Z,94546.16
2023-01-17T06:39:50.698Z,94543.00
2023-01-17T06:42:54.649Z,94540.94
2023-01-17T06:45:58.598Z,94526.59
2023-01-17T06:49:02.332Z,94525.31
2023-01-17T06:52:06.381Z,94520.59
2023-01-17T06:55:10.302Z,94521.06
2023-01-17T06:58:14.463Z,94515.28
2023-01-17T07:01:18.319Z,94505.03
2023-01-17T07:04:22.459Z,94512.81
2023-01-17T07:07:26.396Z,94509.72
2023-01-17T07:10:31.769Z,94514.81
2023-01-17T07:13:36.426Z,94499.63
2023-01-17T07:16:40.509Z,94497.41
2023-01-17T07:19:44.448Z,94482.94
2023-01-17T07:22:48.474Z,94468.63
2023-01-17T07:25:52.739Z,94464.41
2023-01-17T07:28:57.168Z,94463.00
2023-01-17T07:32:00.601Z,94481.28
2023-01-17T07:35:05.105Z,94480.25
2023-01-17T07:38:09.027Z,94472.91
2023-01-17T07:41:13.358Z,94476.25
2023-01-17T07:44:17.496Z,94475.69
2023-01-17T07:47:21.360Z,94475.44
2023-01-17T07:50:25.036Z,94486.56
2023-01-17T07:53:29.010Z,94482.34
2023-01-17T07:56:32.879Z,94486.31
2023-01-17T07:59:36.749Z,94487.25
2023-01-17T08:02:40.661Z,94487.00
2023-01-17T08:05:44.534Z,94484.84
2023-01-17T08:08:48.302Z,94489.06
2023-01-17T08:11:53.574Z,94489.31
2023-01-17T08:14:57.617Z,94490.13
2023-01-17T08:18:01.476Z,94489.13
2023-01-17T08:21:08.001Z,94485.47
2023-01-17T08:24:14.509Z,94484.19
2023-01-17T08:27:18.669Z,94484.03
2023-01-17T08:30:22.596Z,94483.75
2023-01-17T08:33:26.185Z,94470.97
2023-01-17T08:36:30.210Z,94477.53
2023-01-17T08:39:34.293Z,94467.53
2023-01-17T08:42:38.187Z,94466.94
2023-01-17T08:45:41.883Z,94462.47
2023-01-17T08:48:45.907Z,94459.03
2023-01-17T08:51:49.918Z,94466.56
2023-01-17T08:54:53.942Z,94463.69
2023-01-17T08:57:57.820Z,94455.72
2023-01-17T09:01:01.925Z,94455.94
2023-01-17T09:04:06.066Z,94452.34
2023-01-17T09:07:09.888Z,94458.03
2023-01-17T09:10:13.874Z,94441.59
2023-01-17T09:13:17.675Z,94424.75
2023-01-17T09:16:21.646Z,94426.50
2023-01-17T09:19:25.608Z,94413.53
2023-01-17T09:22:29.648Z,94415.38
2023-01-17T09:25:33.405Z,94416.34
2023-01-17T09:28:38.628Z,94430.59
2023-01-17T09:31:42.846Z,94417.97
2023-01-17T09:38:15.321Z,94421.44
2023-01-17T09:41:19.398Z,94418.28
2023-01-17T09:44:23.707Z,94415.88
2023-01-17T09:47:27.635Z,94414.78
2023-01-17T09:50:31.538Z,94410.19
2023-01-17T09:53:37.801Z,94395.31
2023-01-17T09:56:41.787Z,94398.81
2023-01-17T09:59:46.025Z,94393.56
2023-01-17T10:02:49.926Z,94380.31
2023-01-17T10:05:55.474Z,94367.78
2023-01-17T10:08:59.314Z,94365.13
2023-01-17T10:12:04.717Z,94363.56
2023-01-17T10:15:09.364Z,94364.03
2023-01-17T10:18:28.898Z,94352.78
2023-01-17T10:21:34.925Z,94351.38
2023-01-17T10:30:05.124Z,94349.53
2023-01-17T10:33:09.328Z,94343.34
2023-01-17T10:48:24.467Z,94329.84
2023-01-17T10:51:28.452Z,94339.38
2023-01-17T10:54:32.379Z,94321.28
2023-01-17T10:57:36.475Z,94322.59
2023-01-17T11:00:40.473Z,94322.38
2023-01-17T11:03:44.578Z,94316.69
2023-01-17T11:06:57.833Z,94317.66
2023-01-17T11:10:03.546Z,94312.94
2023-01-17T11:13:07.539Z,94310.31
2023-01-17T11:16:11.487Z,94313.59
2023-01-17T11:19:15.706Z,94313.06
2023-01-17T11:22:20.062Z,94303.97
2023-01-17T11:25:24.059Z,94305.25
2023-01-17T11:28:27.963Z,94312.53
2023-01-17T11:31:32.394Z,94311.22
2023-01-17T11:34:36.516Z,94311.06
2023-01-17T11:37:40.636Z,94310.38
2023-01-17T11:41:08.038Z,94320.81
2023-01-17T11:44:17.889Z,94315.22
2023-01-17T11:47:28.637Z,94316.56
2023-01-17T11:50:40.680Z,94307.94
2023-01-17T11:53:47.574Z,94317.16
2023-01-17T11:57:06.038Z,94315.59
2023-01-17T12:00:12.308Z,94327.50
2023-01-17T12:03:30.296Z,94332.66
2023-01-17T12:06:47.832Z,94335.75
2023-01-17T12:10:04.150Z,94330.50
2023-01-17T12:13:13.773Z,94341.19
2023-01-17T12:17:56.188Z,94337.84
2023-01-17T12:23:28.777Z,94328.25
2023-01-17T12:33:39.336Z,94322.75
2023-01-17T12:36:49.791Z,94313.88
2023-01-17T12:39:55.404Z,94304.00
2023-01-17T12:43:16.922Z,94304.13
2023-01-17T12:46:26.846Z,94318.53
2023-01-17T12:49:33.566Z,94310.75
2023-01-17T12:52:40.085Z,94307.91
2023-01-17T12:55:46.904Z,94317.25
2023-01-17T13:02:25.762Z,94320.09
2023-01-17T13:05:32.315Z,94327.13
2023-01-17T13:08:36.636Z,94328.94
2023-01-17T13:24:11.550Z,94333.88
2023-01-17T13:27:21.214Z,94335.44
2023-01-17T13:30:25.289Z,94358.06
2023-01-17T13:33:33.138Z,94362.47
2023-01-17T13:36:37.380Z,94380.19
2023-01-17T13:39:42.138Z,94378.84
2023-01-17T13:42:46.008Z,94378.38
2023-01-17T13:45:49.812Z,94385.63
2023-01-17T13:48:54.094Z,94367.94
2023-01-17T13:51:58.542Z,94390.00
2023-01-17T13:55:02.584Z,94379.13
2023-01-17T13:58:07.061Z,94364.03
2023-01-17T14:01:11.078Z,94363.56
2023-01-17T14:04:17.069Z,94357.81
2023-01-17T14:07:21.359Z,94344.78
2023-01-17T14:13:47.957Z,94357.16
2023-01-17T14:16:51.929Z,94359.38
2023-01-17T14:19:58.983Z,94351.69
2023-01-17T14:26:11.252Z,94374.91
2023-01-17T14:29:15.530Z,94380.38
2023-01-17T14:32:23.905Z,94371.66
2023-01-17T14:37:27.697Z,94374.19
2023-01-17T14:41:06.392Z,94365.53
2023-01-17T14:42:58.028Z,94367.72
2023-01-17T14:46:02.358Z,94362.69
2023-01-17T14:49:06.359Z,94355.66
2023-01-17T14:52:10.384Z,94351.88
2023-01-17T14:55:14.066Z,94358.13
2023-01-17T14:58:19.081Z,94352.44
2023-01-17T15:01:23.579Z,94347.66
2023-01-17T15:04:28.140Z,94356.25
2023-01-17T15:07:32.264Z,94367.56
2023-01-17T15:10:36.167Z,94381.19
2023-01-17T15:13:44.617Z,94377.75
2023-01-17T15:16:53.365Z,94377.94
2023-01-17T15:19:59.876Z,94379.47
2023-01-17T15:23:05.176Z,94384.91
2023-01-17T15:26:09.280Z,94390.63
2023-01-17T15:29:13.643Z,94386.97
2023-01-17T15:32:18.794Z,94404.16
2023-01-17T15:35:22.877Z,94409.38
2023-01-17T15:38:31.667Z,94422.41
2023-01-17T15:41:41.358Z,94412.78
2023-01-17T15:44:48.952Z,94418.78
2023-01-17T15:47:53.750Z,94410.47
2023-01-17T15:50:58.155Z,94408.69
2023-01-17T15:54:04.579Z,94412.06
2023-01-17T15:57:09.187Z,94413.16
2023-01-17T16:03:00.407Z,94406.91
2023-01-17T16:06:09.861Z,94409.50
2023-01-17T16:41:40.407Z,94429.81
2023-01-17T17:22:43.087Z,94406.03
2023-01-17T17:29:18.745Z,94422.19
2023-01-17T17:32:23.765Z,94429.47
2023-01-17T17:35:34.963Z,94433.38
2023-01-17T17:38:39.138Z,94453.91
2023-01-17T17:41:55.978Z,94446.09
2023-01-17T17:45:00.809Z,94456.81
2023-01-17T17:48:04.553Z,94456.59
2023-01-17T17:51:10.043Z,94468.59
2023-01-17T17:54:16.535Z,94470.66
2023-01-17T17:57:22.850Z,94479.28
2023-01-17T18:00:41.335Z,94476.66
2023-01-17T18:03:46.607Z,94485.75
2023-01-17T18:06:50.542Z,94487.81
2023-01-17T18:09:54.749Z,94492.22
2023-01-17T18:13:04.029Z,94492.50
2023-01-17T18:16:08.391Z,94506.28
2023-01-17T18:19:12.495Z,94510.75
2023-01-17T18:22:16.626Z,94502.91
2023-01-17T18:25:20.585Z,94512.00
2023-01-17T18:28:24.476Z,94503.16
2023-01-17T18:31:28.984Z,94506.00
2023-01-17T18:34:32.962Z,94506.75
2023-01-17T18:37:37.744Z,94510.91
2023-01-17T18:40:44.979Z,94517.88
2023-01-17T18:43:51.765Z,94518.41
2023-01-17T18:47:22.701Z,94509.53
2023-01-17T18:57:15.666Z,94500.06
2023-01-17T19:00:19.947Z,94502.88
2023-01-17T19:03:23.918Z,94496.56
2023-01-17T19:06:27.778Z,94500.31
2023-01-17T19:09:34.182Z,94500.50
2023-01-17T19:12:38.291Z,94489.84
2023-01-17T19:15:45.410Z,94493.91
2023-01-17T19:18:49.515Z,94497.03
2023-01-17T19:21:53.390Z,94496.38
2023-01-17T19:25:00.480Z,94497.47
2023-01-17T19:28:04.656Z,94497.31
2023-01-17T19:31:09.981Z,94496.28
2023-01-17T19:34:15.588Z,94505.78
2023-01-17T19:37:19.405Z,94505.13
2023-01-17T19:40:23.390Z,94511.25
2023-01-17T19:43:27.279Z,94508.59
2023-01-17T19:46:31.395Z,94517.16
2023-01-17T19:49:39.690Z,94513.13
2023-01-17T19:52:45.121Z,94513.59
2023-01-17T19:55:51.455Z,94517.22
2023-01-17T19:58:55.565Z,94520.47
2023-01-17T20:09:03.058Z,94531.00
2023-01-17T20:12:08.628Z,94539.50
2023-01-17T20:15:13.549Z,94550.66
2023-01-17T20:18:24.127Z,94545.25
2023-01-17T20:21:29.277Z,94543.00
2023-01-17T20:24:43.433Z,94547.69
2023-01-17T20:27:47.497Z,94548.66
2023-01-17T20:30:51.346Z,94545.19
2023-01-17T20:33:55.320Z,94560.03
2023-01-17T20:37:05.461Z,94558.06
2023-01-17T20:40:09.587Z,94561.41
2023-01-17T20:43:20.099Z,94566.59
2023-01-17T20:46:24.103Z,94558.13
2023-01-17T20:49:28.523Z,94555.53
2023-01-17T20:52:34.579Z,94557.59
2023-01-17T20:55:38.762Z,94559.44
2023-01-17T20:58:42.783Z,94559.69
2023-01-17T21:01:50.934Z,94558.94
2023-01-17T21:32:21.287Z,94622.16
2023-01-17T21:35:45.510Z,94625.31
2023-01-17T21:38:55.439Z,94634.47
2023-01-17T21:42:00.041Z,94626.56
2023-01-17T21:48:29.895Z,94644.31
2023-01-17T21:51:39.808Z,94641.72
2023-01-17T21:54:43.857Z,94643.28
2023-01-17T21:57:51.972Z,94646.09
2023-01-17T22:00:59.538Z,94651.03
2023-01-17T22:04:03.727Z,94654.94
2023-01-17T22:07:15.879Z,94660.09
2023-01-17T22:10:23.144Z,94663.66
2023-01-17T22:13:27.214Z,94663.19
2023-01-17T22:16:34.589Z,94667.91
2023-01-17T22:19:38.469Z,94665.84
2023-01-17T22:22:48.158Z,94673.84
2023-01-17T22:25:52.249Z,94674.88
2023-01-17T22:29:00.751Z,94682.69
2023-01-17T22:32:06.402Z,94681.13
2023-01-17T22:39:20.031Z,94677.22
2023-01-17T22:42:00.780Z,94689.47
2023-01-17T22:45:05.952Z,94692.09
2023-01-17T22:48:43.317Z,94701.38
2023-01-17T22:51:34.785Z,94693.75
2023-01-17T22:54:40.666Z,94696.06
2023-01-17T22:57:53.607Z,94691.28
2023-01-17T23:01:08.049Z,94693.16
2023-01-17T23:10:54.208Z,94700.53
2023-01-17T23:13:59.407Z,94701.53
2023-01-17T23:56:02.247Z,94743.63
2023-01-17T23:59:29.375Z,94740.00
